Hauptseite
METAR-TAF:

METAR-TAF

Flughäfen :

Balmaceda, Chile

Breite: 45-55S, Länge: 071-41W, Höhe: 520 m

Beobachtung

Neuester Wetterbericht von vor 9 Stunden und 46 Minuten, um 01:00 UTC
Wind 20 kt aus West/Nordwest, Böen bis zu 34 kt
Temperatur 8°C
Luftfeuchtigkeit 71%
Luftdruck 1009 hPa
Sichtweite 10 km oder mehr

METAR: SCBA 220100Z AUTO 30020G34KT 9999 NCD 08/03 Q1009

Zeit: 06:46 (10:46 UTC)

Prognose

Neuester Wetterbericht von vor 6 Stunden und 38 Minuten, um 04:08 UTC
Gültige Prognose vom 22 um 06 UTC bis 23 um 06 UTC
Wind 20 kt aus Nordwest, Böen bis zu 30 kt
Sichtweite 10 km oder mehr
Aufgelockert bewölkt in der Höhe von 1200 ft
Übergehend zu
vom 22 um 12 UTC bis 22 um 14 UTC
Wind 20 kt aus Nordwest

TAF: SCBA 220408Z 2206/2306 31020G30KT 9999 SCT012 TN05/2212Z TX10/2219Z BECMG 2212/2214 31020KT

Wetterbeobachtungen und Prognosen von mehr als 4000 Flughäfen (METAR und TAF Bericht).

Die verfügbaren Stationen werden durch gelbe und rote Markierungen auf der Karte dargestellt.

Führen Sie die Maus auf sie, um den Namen der Station zu sehen.

Darauf klicken, um die Beobachtung von Wetterbeobachtungen und Prognosen zu sehen.

Um die Karte zu ändern : klicken Sie auf den grünen Tasten mit einem schwarzen Kreuz Zum Vergrößern, auf den grünen Button mit einem Gedankenstrich zu verkleinern, oder auf die grünen Pfeile für benachbarte Karten.


METAR-TAF: